Time;durP1;ratioP1;P1;durP2;ratioP2;P2;SDS_P1;SDS_P2;PMS_P1;PMS_P2;Temp;Humidity;BMP_temperature;BMP_pressure;BME280_temperature;BME280_humidity;BME280_pressure;Samples;Min_cycle;Max_cycle;Signal;HPM_P1;HPM_P2
2023/05/09 00:00:09;;;;;;;3.58;2.60;;;;;;;12.70;90.98;94906.88;5143938;27;20714;-76
2023/05/09 00:02:38;;;;;;;3.47;2.58;;;;;;;12.84;90.64;94906.56;5130254;27;20208;-76
2023/05/09 00:05:06;;;;;;;3.75;2.45;;;;;;;12.86;90.24;94898.06;5129527;27;20205;-76
2023/05/09 00:07:33;;;;;;;3.15;2.28;;;;;;;12.90;90.02;94899.78;5129948;27;20277;-76
2023/05/09 00:10:00;;;;;;;3.03;2.22;;;;;;;12.86;89.75;94901.56;5129646;27;20251;-76
2023/05/09 00:12:28;;;;;;;3.13;2.15;;;;;;;13.00;89.32;94895.84;5129545;27;20197;-76
2023/05/09 00:14:55;;;;;;;3.05;2.10;;;;;;;13.07;88.45;94890.66;5128685;27;20284;-76
2023/05/09 00:17:25;;;;;;;2.92;2.03;;;;;;;13.01;88.76;94900.16;5130558;27;20201;-76
2023/05/09 00:19:54;;;;;;;2.78;2.40;;;;;;;13.09;88.50;94891.13;5129495;27;20687;-76
2023/05/09 00:22:21;;;;;;;3.17;2.40;;;;;;;13.18;87.88;94888.31;5129668;27;20204;-74
2023/05/09 00:24:48;;;;;;;5.25;2.58;;;;;;;12.88;88.05;94896.59;5130987;27;20235;-75
2023/05/09 00:27:15;;;;;;;4.25;2.85;;;;;;;12.84;88.27;94889.47;5129810;27;20257;-75
2023/05/09 00:29:41;;;;;;;3.83;2.75;;;;;;;12.92;88.47;94891.28;5143430;27;20197;-75
2023/05/09 00:32:08;;;;;;;2.58;2.33;;;;;;;12.90;87.64;94893.53;5129410;27;20956;-75
2023/05/09 00:34:35;;;;;;;3.50;2.80;;;;;;;12.76;88.86;94897.34;5128997;27;20239;-76
2023/05/09 00:37:03;;;;;;;2.75;2.15;;;;;;;12.73;88.27;94895.28;5128896;27;20705;-75
2023/05/09 00:39:30;;;;;;;4.68;2.72;;;;;;;13.01;87.06;94889.25;5128761;27;20260;-75
2023/05/09 00:41:57;;;;;;;2.92;2.53;;;;;;;12.97;87.69;94882.94;5128784;27;20235;-76
2023/05/09 00:44:24;;;;;;;5.65;2.53;;;;;;;12.92;88.44;94886.66;5128528;27;20309;-75
2023/05/09 00:46:50;;;;;;;2.90;2.40;;;;;;;12.74;88.14;94879.78;5128652;27;20851;-75
2023/05/09 00:49:17;;;;;;;3.35;2.35;;;;;;;12.81;88.10;94890.91;5128624;27;20201;-75
2023/05/09 00:51:44;;;;;;;2.58;2.15;;;;;;;12.82;87.68;94892.50;5128603;27;20193;-76
2023/05/09 00:54:12;;;;;;;3.65;2.15;;;;;;;13.02;87.23;94890.84;5114751;27;20719;-73
2023/05/09 00:56:39;;;;;;;4.28;2.30;;;;;;;13.08;86.89;94889.53;5128401;27;20208;-76
2023/05/09 00:59:06;;;;;;;3.28;2.50;;;;;;;13.15;86.94;94887.06;5128326;27;20197;-75
2023/05/09 01:01:33;;;;;;;4.93;2.83;;;;;;;13.06;86.78;94880.91;5128704;27;20783;-75
2023/05/09 01:04:00;;;;;;;3.05;2.30;;;;;;;12.97;86.51;94888.38;5141744;27;20223;-75
2023/05/09 01:06:37;;;;;;;6.53;2.28;;;;;;;12.98;87.73;94884.53;5128139;27;20197;-74
2023/05/09 01:09:10;;;;;;;4.18;2.85;;;;;;;12.98;87.50;94884.53;5128368;27;20291;-75
2023/05/09 01:11:44;;;;;;;3.65;2.20;;;;;;;12.81;87.88;94890.91;5128266;27;20236;-75
2023/05/09 01:14:20;;;;;;;3.30;2.10;;;;;;;12.72;88.05;94888.28;5128456;27;20200;-74
2023/05/09 01:16:53;;;;;;;4.28;2.42;;;;;;;12.61;88.22;94887.09;5128689;27;20201;-74
2023/05/09 01:19:37;;;;;;;3.40;2.47;;;;;;;12.71;88.53;94888.63;5128048;27;20315;-75
2023/05/09 01:22:08;;;;;;;4.43;2.65;;;;;;;12.63;87.58;94887.56;5137584;27;20312;-75
2023/05/09 01:25:01;;;;;;;3.17;2.72;;;;;;;12.56;88.04;94881.88;5131057;27;20246;-75
2023/05/09 01:27:43;;;;;;;4.35;2.70;;;;;;;12.50;88.58;94885.13;5127626;27;20710;-75
2023/05/09 01:30:12;;;;;;;3.42;2.55;;;;;;;12.51;88.14;94887.53;5127641;27;20667;-75
2023/05/09 01:32:40;;;;;;;4.00;2.90;;;;;;;12.53;88.02;94884.47;5127706;27;20205;-75
2023/05/09 01:35:12;;;;;;;3.95;2.92;;;;;;;12.52;88.33;94878.25;5127952;27;20338;-75
2023/05/09 01:37:43;;;;;;;5.53;2.92;;;;;;;12.57;87.68;94891.63;5128336;27;20197;-74
2023/05/09 01:40:16;;;;;;;3.92;2.85;;;;;;;12.53;87.78;94881.75;5127740;28;20210;-75
2023/05/09 01:42:45;;;;;;;3.75;2.75;;;;;;;12.48;88.56;94876.50;5128132;28;20197;-75
2023/05/09 01:45:14;;;;;;;5.53;3.10;;;;;;;12.53;88.21;94874.41;5127783;28;20208;-76
2023/05/09 01:47:43;;;;;;;4.10;3.22;;;;;;;12.59;88.25;94889.34;5127885;28;20547;-77
2023/05/09 01:50:12;;;;;;;5.20;2.90;;;;;;;12.62;88.19;94877.81;5127646;28;20515;-76
2023/05/09 01:52:41;;;;;;;2.88;2.50;;;;;;;12.58;88.29;94887.75;5135321;27;20265;-76
2023/05/09 01:55:10;;;;;;;3.38;2.85;;;;;;;12.56;88.24;94892.75;5134427;27;20684;-76
2023/05/09 01:57:38;;;;;;;3.13;2.28;;;;;;;12.54;88.47;94889.56;5139704;27;20876;-76
2023/05/09 02:00:08;;;;;;;4.78;3.28;;;;;;;12.54;87.90;94892.28;5127354;28;20269;-74
2023/05/09 02:02:37;;;;;;;7.78;3.33;;;;;;;12.57;87.92;94886.19;5127618;28;20201;-75
2023/05/09 02:05:06;;;;;;;3.53;2.88;;;;;;;12.59;88.06;94894.78;5127286;28;20582;-75
2023/05/09 02:07:34;;;;;;;4.63;3.20;;;;;;;12.55;88.57;94888.44;5127602;28;20656;-74
2023/05/09 02:10:02;;;;;;;5.00;3.13;;;;;;;12.51;88.42;94892.16;5127350;28;20245;-74
2023/05/09 02:12:29;;;;;;;6.50;3.08;;;;;;;12.48;88.39;94898.25;5127843;28;20201;-75
2023/05/09 02:14:55;;;;;;;6.25;3.22;;;;;;;12.47;88.34;94892.03;5127309;28;20278;-75
2023/05/09 02:17:22;;;;;;;3.47;2.78;;;;;;;12.47;88.43;94892.03;5127723;28;20259;-75
2023/05/09 02:19:50;;;;;;;3.55;2.50;;;;;;;12.48;88.45;94876.50;5127255;28;20979;-75
2023/05/09 02:22:17;;;;;;;3.53;2.67;;;;;;;12.65;87.74;94881.81;5127297;28;20225;-75
2023/05/09 02:24:45;;;;;;;8.55;4.03;;;;;;;12.67;87.77;94880.34;5141086;27;20265;-75
2023/05/09 02:27:12;;;;;;;6.45;3.63;;;;;;;12.73;87.63;94881.72;5127379;28;20734;-75
2023/05/09 02:29:43;;;;;;;5.03;3.30;;;;;;;12.71;87.49;94880.47;5127575;28;20201;-75
2023/05/09 02:32:13;;;;;;;5.30;3.53;;;;;;;12.67;88.08;94879.53;5127593;28;20261;-75
2023/05/09 02:34:41;;;;;;;4.97;3.58;;;;;;;12.64;87.88;94885.66;5126905;28;20240;-75
2023/05/09 02:37:10;;;;;;;5.10;3.38;;;;;;;12.56;88.59;94879.16;5128857;27;20196;-75
2023/05/09 02:39:37;;;;;;;9.85;2.60;;;;;;;12.63;88.71;94879.41;5131211;27;20664;-75
2023/05/09 02:42:07;;;;;;;3.75;2.75;;;;;;;12.60;88.77;94885.50;5130992;27;20293;-75
2023/05/09 02:44:33;;;;;;;3.83;3.10;;;;;;;12.57;88.91;94880.75;5131223;27;20776;-75
2023/05/09 02:47:01;;;;;;;5.97;3.25;;;;;;;12.60;88.62;94879.28;5131253;27;20209;-75
2023/05/09 02:49:28;;;;;;;5.90;3.35;;;;;;;12.50;89.29;94879.69;5117742;27;20204;-75
2023/05/09 02:51:54;;;;;;;4.82;2.85;;;;;;;12.46;89.59;94876.84;5118769;27;20605;-75
2023/05/09 02:54:23;;;;;;;15.98;7.75;;;;;;;12.56;88.86;94884.59;5143122;27;20260;-75
2023/05/09 02:56:49;;;;;;;15.68;6.20;;;;;;;12.50;88.89;94885.94;5144718;27;20208;-74
2023/05/09 02:59:18;;;;;;;13.13;4.90;;;;;;;12.46;88.72;94888.50;5130674;27;20253;-75
2023/05/09 03:01:44;;;;;;;7.50;3.13;;;;;;;12.31;89.29;94888.31;5130260;27;20229;-76
2023/05/09 03:04:11;;;;;;;6.93;4.15;;;;;;;12.39;88.98;94885.53;5130780;27;20197;-75
2023/05/09 03:06:38;;;;;;;6.40;4.13;;;;;;;12.44;88.83;94888.03;5130444;27;20201;-75
2023/05/09 03:09:06;;;;;;;6.82;3.60;;;;;;;12.45;88.96;94894.28;5130605;27;20262;-76
2023/05/09 03:11:35;;;;;;;4.55;3.15;;;;;;;12.47;89.03;94894.75;5130176;27;20288;-75
2023/05/09 03:14:02;;;;;;;5.03;3.40;;;;;;;12.50;88.80;94896.78;5141173;27;20208;-75
2023/05/09 03:16:29;;;;;;;5.63;3.88;;;;;;;12.47;88.82;94897.44;5136833;27;20212;-75
2023/05/09 03:18:55;;;;;;;6.72;3.22;;;;;;;12.41;89.28;94905.03;5140067;27;20205;-76
2023/05/09 03:21:22;;;;;;;5.38;3.45;;;;;;;12.44;89.44;94914.41;5129636;27;20232;-76
2023/05/09 03:23:49;;;;;;;6.25;3.58;;;;;;;12.44;89.32;94919.84;5130579;27;20561;-75
2023/05/09 03:26:16;;;;;;;5.65;3.70;;;;;;;12.33;89.73;94918.66;5130133;27;20204;-76
2023/05/09 03:28:44;;;;;;;5.03;3.45;;;;;;;12.33;90.12;94926.81;5130924;27;20201;-76
2023/05/09 03:31:10;;;;;;;6.20;3.00;;;;;;;12.29;90.80;94928.63;5124105;27;20206;-74
2023/05/09 03:33:37;;;;;;;4.38;3.08;;;;;;;12.25;90.96;94928.47;5114341;27;20291;-77
2023/05/09 03:36:05;;;;;;;7.03;4.07;;;;;;;12.25;91.60;94933.13;5128385;27;20261;-74
2023/05/09 03:38:31;;;;;;;4.60;3.80;;;;;;;12.23;91.65;94936.16;5130082;27;20256;-78
2023/05/09 03:40:58;;;;;;;6.75;3.70;;;;;;;12.22;91.68;94933.75;5130198;27;20740;-77
2023/05/09 03:43:25;;;;;;;7.10;3.45;;;;;;;12.25;91.93;94941.25;5129853;27;20200;-75
2023/05/09 03:45:53;;;;;;;6.55;3.33;;;;;;;12.19;92.32;94937.13;5129881;27;20257;-77
2023/05/09 03:48:20;;;;;;;6.70;4.03;;;;;;;12.07;93.10;94941.38;5129326;27;20667;-76
2023/05/09 03:50:46;;;;;;;8.85;3.17;;;;;;;12.04;93.57;94947.44;5131598;27;20690;-76
2023/05/09 03:53:13;;;;;;;8.02;4.70;;;;;;;12.07;94.00;94949.50;5129573;27;20205;-76
2023/05/09 03:55:40;;;;;;;9.75;4.85;;;;;;;12.13;93.51;94941.19;5135699;27;20811;-75
2023/05/09 03:58:07;;;;;;;12.77;4.10;;;;;;;12.15;93.30;94944.38;5136873;27;20189;-75
2023/05/09 04:00:33;;;;;;;10.05;4.35;;;;;;;12.15;92.87;94936.22;5129733;27;20201;-75
2023/05/09 04:03:01;;;;;;;5.38;3.50;;;;;;;12.35;92.42;94946.28;5129164;27;20228;-75
2023/05/09 04:05:28;;;;;;;4.45;3.05;;;;;;;12.49;91.19;94946.03;5128905;27;20209;-75
2023/05/09 04:07:55;;;;;;;8.50;4.78;;;;;;;12.68;90.90;94941.72;5129274;27;20249;-76
2023/05/09 04:10:24;;;;;;;10.32;5.57;;;;;;;12.65;90.27;94947.81;5129118;27;20200;-75
2023/05/09 04:12:51;;;;;;;5.88;3.92;;;;;;;12.76;90.01;94943.56;5129178;27;20197;-76
2023/05/09 04:15:17;;;;;;;5.88;3.88;;;;;;;12.90;89.06;94937.03;5129276;27;20556;-76
2023/05/09 04:17:44;;;;;;;5.22;3.17;;;;;;;12.77;89.44;94939.72;5129078;27;20197;-77
2023/05/09 04:20:13;;;;;;;11.18;6.03;;;;;;;12.85;89.18;94931.84;5129284;27;20208;-77
2023/05/09 04:22:40;;;;;;;10.30;4.60;;;;;;;12.89;88.82;94941.69;5128212;27;20228;-77
2023/05/09 04:25:11;;;;;;;8.63;5.85;;;;;;;13.04;87.91;94943.78;5129197;27;20652;-77
2023/05/09 04:27:38;;;;;;;6.40;4.18;;;;;;;13.18;87.12;94951.69;5137609;27;20615;-77
2023/05/09 04:30:09;;;;;;;8.55;4.82;;;;;;;13.42;86.37;94946.28;5137562;27;20662;-76
2023/05/09 04:32:35;;;;;;;9.77;5.45;;;;;;;13.19;86.62;94942.41;5147122;27;20626;-75
2023/05/09 04:35:03;;;;;;;9.40;5.30;;;;;;;13.67;85.36;94938.16;5128948;27;20197;-78
2023/05/09 04:37:31;;;;;;;8.60;4.72;;;;;;;15.58;78.12;94932.88;5128316;27;20216;-76
2023/05/09 04:39:58;;;;;;;5.15;3.50;;;;;;;16.14;73.88;94938.16;5128630;27;20577;-77
2023/05/09 04:42:25;;;;;;;4.78;3.50;;;;;;;15.18;75.96;94937.63;5128181;27;20699;-75
2023/05/09 04:44:52;;;;;;;4.85;3.55;;;;;;;15.51;76.40;94932.69;5128524;27;20250;-74
2023/05/09 04:47:18;;;;;;;6.15;3.40;;;;;;;15.44;74.42;94937.97;5132006;27;20297;-75
2023/05/09 04:49:45;;;;;;;4.47;3.42;;;;;;;15.11;76.08;94940.19;5139454;27;20205;-75
2023/05/09 04:52:12;;;;;;;7.13;4.43;;;;;;;15.36;75.97;94947.09;5128699;27;20201;-74
2023/05/09 04:54:40;;;;;;;6.95;5.90;;;;;;;15.75;74.27;94936.41;5128032;27;20197;-74
2023/05/09 04:57:07;;;;;;;12.38;3.95;;;;;;;15.27;75.07;94938.28;5128230;27;20671;-74
2023/05/09 04:59:34;;;;;;;6.38;4.55;;;;;;;15.26;74.74;94942.16;5128166;27;20217;-74
2023/05/09 05:02:01;;;;;;;5.25;2.92;;;;;;;15.51;73.83;94943.59;5128560;27;20277;-75
2023/05/09 05:04:28;;;;;;;4.97;3.22;;;;;;;15.18;75.14;94934.91;5126925;27;20575;-76
2023/05/09 05:06:55;;;;;;;5.45;4.00;;;;;;;16.92;69.66;94926.22;5127578;27;20204;-75
2023/05/09 05:09:22;;;;;;;7.60;3.50;;;;;;;17.12;68.39;94927.00;5127752;27;20684;-74
2023/05/09 05:11:50;;;;;;;2.92;2.63;;;;;;;17.10;67.92;94918.34;5127885;27;20775;-74
2023/05/09 05:14:17;;;;;;;3.42;2.58;;;;;;;16.34;68.91;94930.81;5140121;27;20204;-75
2023/05/09 05:16:43;;;;;;;2.90;2.38;;;;;;;15.64;71.23;94930.69;5127429;27;20719;-75
2023/05/09 05:19:10;;;;;;;2.75;2.05;;;;;;;14.91;73.70;94929.13;5127827;27;20978;-77
2023/05/09 05:21:37;;;;;;;4.13;2.72;;;;;;;15.13;74.71;94935.97;5127448;27;20236;-76
2023/05/09 05:24:04;;;;;;;4.55;2.20;;;;;;;15.18;72.63;94929.44;5122409;27;20262;-74
2023/05/09 05:26:31;;;;;;;3.80;1.90;;;;;;;14.74;73.57;94948.53;5134112;27;20204;-74
2023/05/09 05:28:59;;;;;;;2.30;1.65;;;;;;;14.57;74.53;94943.34;5135516;27;20276;-74
2023/05/09 05:31:26;;;;;;;4.70;2.45;;;;;;;14.36;75.54;94938.00;5127196;27;20197;-73
2023/05/09 05:33:53;;;;;;;3.97;2.22;;;;;;;14.17;76.44;94952.25;5126856;27;20237;-75
2023/05/09 05:36:20;;;;;;;3.92;2.40;;;;;;;14.07;78.28;94955.44;5127307;27;20199;-74
2023/05/09 05:38:46;;;;;;;2.67;1.70;;;;;;;14.02;77.81;94957.59;5127300;27;20205;-74
2023/05/09 05:41:14;;;;;;;3.25;2.00;;;;;;;14.04;77.66;94947.16;5127266;28;20208;-70
2023/05/09 05:43:41;;;;;;;2.47;1.50;;;;;;;13.91;78.86;94951.00;5126878;28;20666;-71
2023/05/09 05:46:09;;;;;;;1.67;1.58;;;;;;;13.93;79.60;94952.25;5127129;28;20667;-73
2023/05/09 05:48:36;;;;;;;2.00;1.50;;;;;;;13.88;78.67;94949.75;5127634;28;20217;-72
2023/05/09 05:51:02;;;;;;;1.83;1.60;;;;;;;14.01;78.80;94954.06;5107119;28;20243;-72
2023/05/09 05:53:30;;;;;;;1.45;1.35;;;;;;;14.08;79.03;94945.31;5135022;27;20672;-73
2023/05/09 05:55:57;;;;;;;1.08;0.93;;;;;;;13.81;79.31;94954.94;5126780;28;20204;-74
2023/05/09 05:58:24;;;;;;;2.50;1.48;;;;;;;13.96;79.98;94962.44;5126854;28;20547;-73
2023/05/09 06:00:52;;;;;;;2.45;1.90;;;;;;;13.96;80.63;94956.22;5127004;28;20200;-74
2023/05/09 06:03:20;;;;;;;1.92;1.45;;;;;;;13.95;79.97;94955.41;5140407;27;20718;-73
2023/05/09 06:05:47;;;;;;;5.75;2.10;;;;;;;13.97;80.41;94947.69;5124576;28;20240;-73
2023/05/09 06:08:14;;;;;;;3.30;2.00;;;;;;;14.11;79.75;94948.16;5125610;28;20323;-76
2023/05/09 06:10:41;;;;;;;1.85;1.33;;;;;;;14.16;79.08;94950.66;5127042;27;20250;-73
2023/05/09 06:13:08;;;;;;;2.95;1.80;;;;;;;14.16;79.65;94950.66;5130312;27;20193;-72
2023/05/09 06:15:35;;;;;;;2.42;1.70;;;;;;;14.14;79.25;94950.19;5129567;27;20205;-73
2023/05/09 06:18:02;;;;;;;2.03;1.50;;;;;;;14.13;78.52;94951.31;5130636;27;20249;-73
2023/05/09 06:20:30;;;;;;;2.28;1.48;;;;;;;14.33;77.94;94951.53;5129909;27;20206;-71
2023/05/09 06:22:57;;;;;;;5.00;1.30;;;;;;;14.67;76.58;94948.31;5129698;27;20232;-72
2023/05/09 06:25:23;;;;;;;1.88;1.00;;;;;;;14.41;76.96;94950.66;5129883;27;20945;-72
2023/05/09 06:27:50;;;;;;;2.20;1.20;;;;;;;14.34;76.77;94953.94;5129645;27;20208;-71
2023/05/09 06:30:17;;;;;;;1.50;1.25;;;;;;;14.31;77.36;94953.81;5129827;27;20196;-71
2023/05/09 06:32:43;;;;;;;2.53;1.58;;;;;;;13.96;78.03;94957.00;5132432;27;20392;-73
2023/05/09 06:35:10;;;;;;;3.13;1.38;;;;;;;14.04;77.66;94956.09;5128854;27;20699;-73
2023/05/09 06:37:38;;;;;;;2.15;1.55;;;;;;;14.23;77.09;94958.25;5129635;27;20736;-72
2023/05/09 06:40:07;;;;;;;3.05;1.70;;;;;;;14.23;77.78;94952.78;5128399;27;20994;-72
2023/05/09 06:42:33;;;;;;;1.65;0.98;;;;;;;14.33;76.11;94954.28;5128297;27;20274;-71
2023/05/09 06:45:00;;;;;;;7.45;1.25;;;;;;;14.27;76.64;94952.91;5128647;27;20214;-72
2023/05/09 06:47:27;;;;;;;4.22;1.20;;;;;;;14.67;75.72;94947.50;5128661;27;20254;-74
2023/05/09 06:49:53;;;;;;;1.23;0.95;;;;;;;14.78;74.66;94949.41;5128221;27;20685;-76
2023/05/09 06:52:21;;;;;;;0.52;0.52;;;;;;;14.78;73.32;94948.59;5128542;27;20250;-77
2023/05/09 06:54:49;;;;;;;0.80;0.70;;;;;;;15.15;72.57;94946.53;5128977;27;20203;-78
2023/05/09 06:57:16;;;;;;;0.63;0.60;;;;;;;14.85;72.56;94955.06;5127377;27;20201;-77
2023/05/09 06:59:43;;;;;;;0.80;0.80;;;;;;;14.72;73.73;94948.06;5129214;27;20200;-75
2023/05/09 07:02:10;;;;;;;2.50;0.80;;;;;;;14.45;74.45;94957.00;5129190;27;20289;-77
2023/05/09 07:04:37;;;;;;;2.03;1.20;;;;;;;14.47;74.61;94960.19;5130133;27;20193;-75
2023/05/09 07:07:04;;;;;;;1.45;1.05;;;;;;;14.40;75.04;94944.41;5129133;27;20901;-77
2023/05/09 07:09:30;;;;;;;2.05;0.90;;;;;;;14.54;74.65;94950.28;5129216;27;20213;-78
2023/05/09 07:12:00;;;;;;;2.67;0.90;;;;;;;14.44;75.28;94942.56;5129083;27;20204;-77
2023/05/09 07:14:27;;;;;;;0.88;0.77;;;;;;;14.65;74.41;94945.13;5130211;27;20304;-75
2023/05/09 07:16:54;;;;;;;2.67;0.80;;;;;;;14.46;74.46;94944.97;5130497;27;20204;-77
2023/05/09 07:19:20;;;;;;;2.40;1.40;;;;;;;14.41;74.35;94950.66;5129952;27;20335;-77
2023/05/09 07:21:47;;;;;;;0.95;0.90;;;;;;;14.31;73.64;94945.63;5129049;27;20728;-76
2023/05/09 07:24:14;;;;;;;2.72;1.80;;;;;;;14.42;73.81;94946.78;5128439;27;20201;-74
2023/05/09 07:26:40;;;;;;;5.78;3.55;;;;;;;14.57;72.97;94944.13;5128950;27;20197;-74
2023/05/09 07:29:15;;;;;;;1.30;1.15;;;;;;;14.86;72.69;94940.31;5129457;27;20200;-74
2023/05/09 07:31:42;;;;;;;2.47;1.50;;;;;;;15.13;71.16;94938.72;5129423;27;20221;-74
2023/05/09 07:34:09;;;;;;;4.93;2.15;;;;;;;15.05;70.67;94947.03;5129133;27;20237;-74
2023/05/09 07:36:36;;;;;;;2.17;1.63;;;;;;;14.67;71.36;94942.84;5128725;27;20220;-74
2023/05/09 07:39:03;;;;;;;4.82;1.50;;;;;;;14.57;71.44;94943.34;5128751;27;20288;-74
2023/05/09 07:41:34;;;;;;;2.33;1.35;;;;;;;14.64;71.48;94953.66;5132533;27;20533;-76
2023/05/09 07:44:01;;;;;;;3.45;1.52;;;;;;;15.12;69.64;94947.25;5128529;27;20235;-75
2023/05/09 07:46:29;;;;;;;3.35;1.27;;;;;;;15.05;70.14;94947.81;5128384;27;20639;-75
2023/05/09 07:48:56;;;;;;;5.25;1.45;;;;;;;15.23;69.82;94948.31;5128922;27;20205;-74
2023/05/09 07:51:23;;;;;;;2.08;1.48;;;;;;;15.06;70.27;94943.94;5125225;27;20205;-74
2023/05/09 07:53:50;;;;;;;1.70;1.15;;;;;;;15.06;70.23;94948.63;5128498;27;20205;-74
2023/05/09 07:56:17;;;;;;;1.38;1.13;;;;;;;14.67;70.69;94947.50;5118518;27;20293;-74
2023/05/09 07:58:43;;;;;;;1.55;1.45;;;;;;;14.50;71.16;94949.38;5126608;27;20545;-74
2023/05/09 08:01:10;;;;;;;1.83;1.15;;;;;;;14.59;70.36;94946.53;5128746;27;20200;-72
2023/05/09 08:03:38;;;;;;;1.48;1.17;;;;;;;14.52;71.01;94947.09;5128554;27;20640;-74
2023/05/09 08:06:05;;;;;;;3.00;1.75;;;;;;;14.37;72.98;94941.53;5127580;27;20697;-73
2023/05/09 08:08:32;;;;;;;1.70;1.27;;;;;;;14.42;73.84;94935.88;5115196;27;20257;-74
2023/05/09 08:10:59;;;;;;;1.17;0.98;;;;;;;14.53;73.19;94934.25;5129245;27;20197;-75
2023/05/09 08:13:26;;;;;;;2.97;0.77;;;;;;;14.26;73.63;94940.41;5129095;27;20261;-74
2023/05/09 08:15:53;;;;;;;1.17;1.08;;;;;;;14.44;74.07;94944.50;5129111;27;20196;-78
2023/05/09 08:18:20;;;;;;;3.08;1.27;;;;;;;14.69;72.33;94943.31;5116138;27;20285;-75
2023/05/09 08:20:48;;;;;;;1.30;1.20;;;;;;;14.72;72.09;94945.34;5128214;27;20193;-76
2023/05/09 08:23:14;;;;;;;2.60;1.45;;;;;;;14.65;72.38;94942.41;5147537;27;20231;-76
2023/05/09 08:25:41;;;;;;;1.75;1.10;;;;;;;15.20;70.79;94943.53;5136257;27;20205;-76
2023/05/09 08:28:08;;;;;;;1.95;1.50;;;;;;;15.77;69.19;94939.59;5127891;27;20732;-76
2023/05/09 08:30:35;;;;;;;3.65;1.17;;;;;;;16.18;67.79;94936.31;5127926;27;20246;-75
2023/05/09 08:33:02;;;;;;;1.70;1.55;;;;;;;15.94;67.38;94940.03;5127694;27;20241;-76
2023/05/09 08:35:29;;;;;;;2.08;1.05;;;;;;;16.09;67.28;94935.72;5127205;27;20197;-76
2023/05/09 08:37:57;;;;;;;1.85;1.10;;;;;;;16.14;67.51;94938.16;5127801;27;20193;-73
2023/05/09 08:40:24;;;;;;;2.08;1.30;;;;;;;16.13;66.43;94933.81;5127581;27;20406;-78
2023/05/09 08:42:51;;;;;;;3.22;1.48;;;;;;;16.69;65.29;94926.13;5126765;27;20620;-77
2023/05/09 08:45:25;;;;;;;2.05;1.48;;;;;;;15.74;66.53;94945.75;5126989;27;20590;-77
2023/05/09 08:47:53;;;;;;;1.90;1.38;;;;;;;16.11;66.80;94933.41;5116050;27;20196;-78
2023/05/09 08:50:20;;;;;;;1.40;1.10;;;;;;;16.57;65.54;94925.44;5128105;27;20668;-75
2023/05/09 08:52:47;;;;;;;1.92;1.50;;;;;;;15.69;67.70;94932.38;5127859;27;20204;-74
2023/05/09 08:55:16;;;;;;;1.52;0.90;;;;;;;15.38;68.90;94942.09;5127640;27;20782;-75
2023/05/09 08:57:43;;;;;;;4.00;1.50;;;;;;;15.66;68.27;94938.53;5128083;27;20204;-73
2023/05/09 09:00:14;;;;;;;1.80;1.20;;;;;;;15.84;67.87;94940.59;5128111;27;20960;-74
2023/05/09 09:02:41;;;;;;;1.23;1.00;;;;;;;15.71;67.23;94941.03;5128088;27;20699;-73
2023/05/09 09:05:09;;;;;;;1.25;1.05;;;;;;;15.09;68.57;94937.00;5128415;27;20239;-73
2023/05/09 09:07:38;;;;;;;2.47;1.00;;;;;;;15.56;67.97;94921.53;5127791;27;20197;-73
2023/05/09 09:10:07;;;;;;;1.63;1.10;;;;;;;15.68;67.83;94931.59;5128064;27;20201;-73
2023/05/09 09:12:37;;;;;;;1.00;0.90;;;;;;;15.81;67.93;94932.28;5128058;27;20197;-74
2023/05/09 09:15:14;;;;;;;3.58;1.23;;;;;;;15.65;68.16;94926.81;5129176;27;20283;-74
2023/05/09 09:17:43;;;;;;;2.70;1.85;;;;;;;16.16;66.75;94935.84;5128212;27;20236;-74
2023/05/09 09:20:13;;;;;;;1.02;0.90;;;;;;;15.22;69.08;94930.34;5127659;27;20261;-75
2023/05/09 09:22:43;;;;;;;1.45;1.30;;;;;;;15.55;69.20;94939.06;5128059;27;20201;-75
2023/05/09 09:25:10;;;;;;;2.30;1.55;;;;;;;15.31;69.37;94947.34;5127412;27;20663;-74
2023/05/09 09:27:40;;;;;;;1.58;1.13;;;;;;;15.15;70.45;94941.09;5127229;27;20218;-75
2023/05/09 09:30:07;;;;;;;3.35;1.90;;;;;;;15.18;69.79;94940.38;5127691;27;20197;-75
2023/05/09 09:32:35;;;;;;;1.77;1.25;;;;;;;15.15;70.73;94946.53;5127673;27;20224;-74
2023/05/09 09:35:06;;;;;;;1.25;1.15;;;;;;;14.73;72.04;94951.59;5128614;27;20193;-75
2023/05/09 09:37:34;;;;;;;0.90;0.80;;;;;;;14.58;71.85;94950.38;5127852;27;20285;-74
2023/05/09 09:40:01;;;;;;;1.60;1.42;;;;;;;14.88;72.20;94945.41;5128043;27;20208;-75
2023/05/09 09:42:42;;;;;;;1.02;0.93;;;;;;;14.57;72.73;94948.78;5127205;28;20680;-72
2023/05/09 09:45:13;;;;;;;1.92;1.35;;;;;;;14.83;72.32;94941.00;5127177;27;20213;-74
2023/05/09 09:47:40;;;;;;;5.10;1.42;;;;;;;14.90;72.57;94949.34;5132220;27;20684;-74
2023/05/09 09:50:12;;;;;;;2.20;1.42;;;;;;;15.13;71.35;94940.63;5136256;27;20211;-74
2023/05/09 09:52:49;;;;;;;1.48;1.20;;;;;;;14.79;71.23;94945.53;5114833;28;21004;-75
2023/05/09 09:55:16;;;;;;;1.25;1.15;;;;;;;14.60;71.85;94953.56;5141402;27;20208;-73
2023/05/09 09:57:45;;;;;;;1.15;1.05;;;;;;;14.34;73.10;94944.97;5127477;28;20213;-75
2023/05/09 10:00:14;;;;;;;1.10;0.90;;;;;;;14.61;72.33;94949.69;5127638;28;20692;-74
2023/05/09 10:02:49;;;;;;;2.00;1.30;;;;;;;14.72;72.16;94945.34;5127461;28;20201;-74
2023/05/09 10:05:20;;;;;;;2.22;2.00;;;;;;;15.43;70.31;94944.56;5126907;28;20310;-74
2023/05/09 10:07:50;;;;;;;2.33;1.52;;;;;;;15.76;68.79;94938.00;5127433;28;20387;-74
2023/05/09 10:10:17;;;;;;;2.03;1.20;;;;;;;15.64;68.17;94931.50;5118205;28;20717;-76
2023/05/09 10:12:48;;;;;;;2.08;1.23;;;;;;;15.52;69.32;94933.47;5133100;27;20192;-75
2023/05/09 10:15:19;;;;;;;3.05;1.40;;;;;;;15.67;68.97;94923.75;5127471;27;20567;-74
2023/05/09 10:17:47;;;;;;;2.13;1.08;;;;;;;15.86;69.51;94924.59;5126954;28;20229;-75
2023/05/09 10:20:14;;;;;;;1.30;1.10;;;;;;;15.72;69.49;94934.38;5127123;28;20644;-75
2023/05/09 10:22:41;;;;;;;5.28;1.80;;;;;;;15.94;68.85;94939.25;5128342;27;20201;-75
2023/05/09 10:25:14;;;;;;;2.00;1.73;;;;;;;15.80;69.33;94936.16;5147394;27;20296;-76
2023/05/09 10:27:45;;;;;;;2.83;2.05;;;;;;;15.71;70.35;94941.03;5140830;27;20211;-73
2023/05/09 10:30:18;;;;;;;2.17;1.60;;;;;;;15.64;70.60;94938.88;5127026;28;20209;-74
2023/05/09 10:32:53;;;;;;;2.00;1.30;;;;;;;15.73;70.28;94933.25;5126855;28;20268;-73
2023/05/09 10:35:24;;;;;;;1.15;0.93;;;;;;;15.26;70.78;94932.03;5126554;28;20739;-75
2023/05/09 10:37:55;;;;;;;3.10;1.15;;;;;;;15.60;70.51;94913.41;5127254;28;20203;-76
2023/05/09 10:40:22;;;;;;;4.95;1.55;;;;;;;15.63;70.28;94935.38;5140919;27;20324;-75
2023/05/09 10:42:50;;;;;;;3.72;1.40;;;;;;;15.64;70.74;94930.69;5127486;27;20201;-75
2023/05/09 10:45:20;;;;;;;2.92;1.33;;;;;;;15.52;70.67;94938.94;5127160;27;20236;-75
2023/05/09 10:47:49;;;;;;;1.30;1.20;;;;;;;15.14;71.77;94931.31;5140067;27;20197;-76
2023/05/09 10:50:20;;;;;;;6.47;1.40;;;;;;;15.11;72.09;94929.28;5126504;28;20204;-75
2023/05/09 10:53:07;;;;;;;1.60;1.20;;;;;;;15.31;71.64;94925.50;5126765;28;20205;-75
2023/05/09 10:55:39;;;;;;;1.33;1.23;;;;;;;15.63;70.56;94934.56;5126730;28;20208;-72
2023/05/09 10:58:27;;;;;;;1.85;1.60;;;;;;;15.69;71.11;94927.72;5128075;27;20655;-74
2023/05/09 11:00:58;;;;;;;2.15;1.95;;;;;;;15.61;70.21;94923.19;5114148;27;20609;-74
2023/05/09 11:03:26;;;;;;;1.15;1.05;;;;;;;15.20;71.59;94921.72;5130351;27;20564;-77
2023/05/09 11:05:55;;;;;;;3.72;2.15;;;;;;;15.48;71.42;94938.84;5130600;27;20304;-75
2023/05/09 11:08:24;;;;;;;2.65;1.83;;;;;;;15.47;71.10;94923.59;5130934;27;20269;-73
2023/05/09 11:10:51;;;;;;;3.60;2.30;;;;;;;15.21;71.47;94931.50;5130680;27;20211;-75
2023/05/09 11:13:23;;;;;;;3.22;2.40;;;;;;;15.79;70.15;94929.13;5130107;27;20201;-74
2023/05/09 11:16:03;;;;;;;3.22;2.15;;;;;;;15.04;72.28;94929.84;5130532;27;20232;-74
2023/05/09 11:18:34;;;;;;;5.95;2.35;;;;;;;15.61;71.43;94926.72;5130070;27;20201;-74
2023/05/09 11:21:11;;;;;;;6.10;2.10;;;;;;;15.74;69.36;94924.69;5129941;27;20659;-71
2023/05/09 11:23:41;;;;;;;5.72;2.10;;;;;;;15.76;69.43;94921.63;5127696;27;20746;-75
2023/05/09 11:26:08;;;;;;;1.83;1.52;;;;;;;15.22;71.20;94927.63;5129055;27;20607;-75
2023/05/09 11:28:39;;;;;;;3.72;1.30;;;;;;;14.87;71.73;94941.88;5116855;27;20939;-73
2023/05/09 11:31:11;;;;;;;4.50;1.60;;;;;;;14.94;72.02;94930.38;5128692;27;20308;-74
2023/05/09 11:33:40;;;;;;;2.35;1.80;;;;;;;14.72;72.59;94933.66;5124634;27;20275;-73
2023/05/09 11:36:18;;;;;;;2.60;2.25;;;;;;;15.13;71.25;94927.00;5127275;27;20193;-74
2023/05/09 11:38:46;;;;;;;1.60;1.08;;;;;;;14.77;72.45;94933.38;5126269;27;20281;-73